Terminal Aerodrome Forecast
Issued by NWS Paducah, KY

Home | Current Version | Previous Version | Graphics & Text | Print | Product List | Glossary On
Versions: 1 2 3 4 5 6 7 8 9 10 11 12 13 14 15 16 17 18 19
000
FTUS43 KPAH 271015 AAB
TAFPAH
TAF AMD
KPAH 271015Z 2710/2806 00000KT 3SM BR SKC
      TEMPO 2710/2713 1/2SM FG OVC002
     FM271400 VRB04KT P6SM SCT020
     FM272100 VRB05KT P6SM -SHRA VCTS BKN040CB
     FM280100 VRB03KT P6SM BKN040=

USA.gov is the U.S. government's official web portal to all federal, state and local government web resources and services.